ARG1862 SABE-SAWG
Flight info
| Callsign | ARG1862 |
|---|---|
| Flight time | N/A |
| Altitude | 34000 |
| Route | PTA8 GBE UZ117 IRAVU IRAVU3R |
| Aircraft | B738/M-SDE2E3FGHIRWXY/LB1 |
Departure
| Time | 2026-05-04 01:09 |
|---|---|
| Airport | Aeroparque Jorge Newbery (SABE) |
Arrival
| Time | N/A |
|---|---|
| Airport | Piloto Civil Norberto Fernández International Airport (SAWG) |
| Time | Latitude | Longitude | Altitude | Speed | Heading |
|---|---|---|---|---|---|
| 2026-05-04 01:09 | -34.59164 | -58.19787 | 10645 ft | 336 kts | 152° |
| 2026-05-04 01:09 | -34.61230 | -58.18260 | 10822 ft | 358 kts | 151° |
| 2026-05-04 01:09 | -34.63410 | -58.16629 | 11072 ft | 376 kts | 151° |
| 2026-05-04 01:10 | -34.65648 | -58.14923 | 11608 ft | 383 kts | 151° |
| 2026-05-04 01:10 | -34.67905 | -58.13178 | 12290 ft | 385 kts | 151° |
| 2026-05-04 01:10 | -34.70165 | -58.11416 | 12982 ft | 387 kts | 151° |
| 2026-05-04 01:10 | -34.72440 | -58.09634 | 13610 ft | 391 kts | 151° |
| 2026-05-04 01:11 | -34.74719 | -58.07847 | 14191 ft | 395 kts | 151° |
| 2026-05-04 01:11 | -34.77040 | -58.06023 | 14773 ft | 398 kts | 152° |
| 2026-05-04 01:11 | -34.79371 | -58.04191 | 15349 ft | 401 kts | 152° |
| 2026-05-04 01:11 | -34.81728 | -58.02337 | 15921 ft | 405 kts | 152° |
| 2026-05-04 01:12 | -34.84105 | -58.00467 | 16471 ft | 409 kts | 152° |
| 2026-05-04 01:12 | -34.86503 | -57.98578 | 17011 ft | 413 kts | 152° |
| 2026-05-04 01:12 | -34.88923 | -57.96672 | 17575 ft | 416 kts | 152° |
| 2026-05-04 01:12 | -34.91357 | -57.94753 | 18131 ft | 419 kts | 152° |
| 2026-05-04 01:13 | -34.93839 | -57.92871 | 18607 ft | 419 kts | 159° |
| 2026-05-04 01:13 | -34.96555 | -57.91854 | 19019 ft | 408 kts | 180° |
| 2026-05-04 01:13 | -34.99347 | -57.91967 | 19529 ft | 398 kts | 195° |
| 2026-05-04 01:13 | -35.01965 | -57.92926 | 20016 ft | 390 kts | 211° |
| 2026-05-04 01:14 | -35.04309 | -57.94504 | 20501 ft | 389 kts | 216° |
| 2026-05-04 01:14 | -35.06633 | -57.96207 | 20977 ft | 391 kts | 217° |
| 2026-05-04 01:14 | -35.08957 | -57.97941 | 21434 ft | 393 kts | 217° |
| 2026-05-04 01:14 | -35.11277 | -57.99670 | 21877 ft | 396 kts | 217° |
| 2026-05-04 01:15 | -35.13637 | -58.01419 | 22320 ft | 398 kts | 217° |
| 2026-05-04 01:15 | -35.16018 | -58.03169 | 22746 ft | 400 kts | 217° |
| 2026-05-04 01:15 | -35.18413 | -58.04922 | 23173 ft | 403 kts | 217° |
| 2026-05-04 01:15 | -35.20826 | -58.06682 | 23584 ft | 405 kts | 217° |
| 2026-05-04 01:16 | -35.23254 | -58.08451 | 23936 ft | 407 kts | 217° |
| 2026-05-04 01:16 | -35.25692 | -58.10226 | 24309 ft | 408 kts | 217° |
| 2026-05-04 01:16 | -35.28139 | -58.12008 | 24676 ft | 410 kts | 217° |
| 2026-05-04 01:16 | -35.30593 | -58.13797 | 25058 ft | 411 kts | 217° |
| 2026-05-04 01:17 | -35.33057 | -58.15595 | 25404 ft | 413 kts | 217° |
| 2026-05-04 01:17 | -35.35528 | -58.17400 | 25727 ft | 415 kts | 217° |
| 2026-05-04 01:17 | -35.38010 | -58.19214 | 26050 ft | 416 kts | 217° |
| 2026-05-04 01:17 | -35.40502 | -58.21037 | 26395 ft | 417 kts | 217° |
| 2026-05-04 01:18 | -35.42997 | -58.22863 | 26761 ft | 418 kts | 217° |
| 2026-05-04 01:18 | -35.45497 | -58.24694 | 27063 ft | 420 kts | 217° |
| 2026-05-04 01:18 | -35.48011 | -58.26537 | 27335 ft | 422 kts | 217° |
| 2026-05-04 01:18 | -35.50570 | -58.28416 | 27612 ft | 424 kts | 217° |
| 2026-05-04 01:19 | -35.53101 | -58.30274 | 27909 ft | 425 kts | 217° |
| 2026-05-04 01:19 | -35.55645 | -58.32142 | 28206 ft | 426 kts | 217° |
| 2026-05-04 01:19 | -35.58184 | -58.34006 | 28633 ft | 425 kts | 217° |
| 2026-05-04 01:19 | -35.59866 | -58.35238 | 28911 ft | 424 kts | 217° |
| 2026-05-04 01:20 | -35.63204 | -58.37695 | 29541 ft | 420 kts | 217° |
| 2026-05-04 01:20 | -35.65737 | -58.39564 | 29974 ft | 419 kts | 217° |
| 2026-05-04 01:20 | -35.67391 | -58.40787 | 30199 ft | 419 kts | 217° |
| 2026-05-04 01:20 | -35.70696 | -58.43228 | 30622 ft | 418 kts | 217° |
| 2026-05-04 01:21 | -35.73215 | -58.45088 | 30977 ft | 416 kts | 217° |
| 2026-05-04 01:21 | -35.75709 | -58.46882 | 31333 ft | 417 kts | 214° |
| 2026-05-04 01:21 | -35.78343 | -58.48417 | 31651 ft | 420 kts | 211° |
| 2026-05-04 01:21 | -35.81016 | -58.49773 | 31963 ft | 421 kts | 209° |
| 2026-05-04 01:22 | -35.83779 | -58.51105 | 32310 ft | 420 kts | 209° |
| 2026-05-04 01:22 | -35.86498 | -58.52410 | 32655 ft | 418 kts | 209° |
| 2026-05-04 01:22 | -35.88289 | -58.53279 | 32880 ft | 417 kts | 210° |
| 2026-05-04 01:22 | -35.90977 | -58.54603 | 33212 ft | 415 kts | 210° |
| 2026-05-04 01:23 | -35.91881 | -58.55053 | 33332 ft | 414 kts | 210° |
| 2026-05-04 01:24 | -36.07649 | -58.63087 | 34016 ft | 410 kts | 211° |
| 2026-05-04 01:24 | -36.10276 | -58.64434 | 34028 ft | 409 kts | 211° |
| 2026-05-04 01:25 | -36.15496 | -58.67116 | 34015 ft | 407 kts | 211° |
| 2026-05-04 01:25 | -36.20707 | -58.69797 | 34020 ft | 405 kts | 211° |
| 2026-05-04 01:26 | -36.25909 | -58.72476 | 34020 ft | 404 kts | 211° |
| 2026-05-04 01:26 | -36.31104 | -58.75157 | 34009 ft | 405 kts | 211° |
| 2026-05-04 01:27 | -36.36315 | -58.77850 | 34019 ft | 406 kts | 211° |
| 2026-05-04 01:27 | -36.41542 | -58.80555 | 34016 ft | 408 kts | 211° |
| 2026-05-04 01:28 | -36.46788 | -58.83272 | 34006 ft | 409 kts | 211° |
| 2026-05-04 01:28 | -36.51197 | -58.85559 | 34009 ft | 410 kts | 211° |
| 2026-05-04 01:29 | -36.56442 | -58.88283 | 34012 ft | 411 kts | 211° |
| 2026-05-04 01:29 | -36.61730 | -58.91034 | 34012 ft | 412 kts | 211° |
| 2026-05-04 01:30 | -36.67063 | -58.93812 | 34004 ft | 413 kts | 211° |
| 2026-05-04 01:30 | -36.72363 | -58.96576 | 34006 ft | 413 kts | 211° |
| 2026-05-04 01:31 | -36.77661 | -58.99344 | 34000 ft | 413 kts | 211° |
| 2026-05-04 01:31 | -36.82955 | -59.02114 | 34001 ft | 412 kts | 211° |
| 2026-05-04 01:32 | -36.88238 | -59.04883 | 33998 ft | 412 kts | 211° |
| 2026-05-04 01:32 | -36.93512 | -59.07651 | 33993 ft | 411 kts | 211° |
| 2026-05-04 01:33 | -36.98781 | -59.10421 | 33987 ft | 410 kts | 211° |
| 2026-05-04 01:33 | -37.04037 | -59.13188 | 33978 ft | 410 kts | 211° |
| 2026-05-04 01:34 | -37.09285 | -59.15956 | 33988 ft | 410 kts | 211° |
| 2026-05-04 01:34 | -37.14537 | -59.18730 | 33977 ft | 409 kts | 211° |
| 2026-05-04 01:35 | -37.19786 | -59.21506 | 33968 ft | 409 kts | 211° |
| 2026-05-04 01:35 | -37.25015 | -59.24306 | 33963 ft | 408 kts | 212° |
| 2026-05-04 01:36 | -37.30192 | -59.27198 | 33979 ft | 407 kts | 213° |
| 2026-05-04 01:36 | -37.35365 | -59.30111 | 33988 ft | 408 kts | 213° |
| 2026-05-04 01:37 | -37.40552 | -59.33026 | 33987 ft | 408 kts | 213° |
| 2026-05-04 01:37 | -37.45743 | -59.35939 | 33982 ft | 408 kts | 213° |
| 2026-05-04 01:38 | -37.50930 | -59.38852 | 33970 ft | 409 kts | 213° |
| 2026-05-04 01:38 | -37.56124 | -59.41773 | 33963 ft | 409 kts | 213° |
| 2026-05-04 01:39 | -37.61320 | -59.44701 | 33964 ft | 409 kts | 213° |
| 2026-05-04 01:39 | -37.66516 | -59.47632 | 33953 ft | 409 kts | 213° |
| 2026-05-04 01:40 | -37.71713 | -59.50568 | 33953 ft | 409 kts | 213° |
| 2026-05-04 01:40 | -37.76905 | -59.53506 | 33941 ft | 409 kts | 213° |
| 2026-05-04 01:41 | -37.82088 | -59.56444 | 33985 ft | 408 kts | 213° |
| 2026-05-04 01:41 | -37.87277 | -59.59390 | 33948 ft | 408 kts | 213° |
| 2026-05-04 01:42 | -37.92461 | -59.62337 | 33941 ft | 408 kts | 213° |
| 2026-05-04 01:42 | -37.97637 | -59.65284 | 33927 ft | 408 kts | 213° |
| 2026-05-04 01:43 | -38.02808 | -59.68233 | 33932 ft | 407 kts | 213° |
| 2026-05-04 01:43 | -38.07974 | -59.71183 | 33926 ft | 407 kts | 213° |
| 2026-05-04 01:44 | -38.13139 | -59.74139 | 33922 ft | 407 kts | 213° |
| 2026-05-04 01:44 | -38.18296 | -59.77094 | 33920 ft | 407 kts | 213° |
| 2026-05-04 01:45 | -38.23457 | -59.80056 | 33921 ft | 407 kts | 213° |
| 2026-05-04 01:45 | -38.31196 | -59.84506 | 33921 ft | 408 kts | 213° |
| 2026-05-04 01:46 | -38.36371 | -59.87489 | 33906 ft | 409 kts | 213° |
| 2026-05-04 01:46 | -38.41562 | -59.90485 | 33906 ft | 410 kts | 213° |
| 2026-05-04 01:47 | -38.46767 | -59.93493 | 33898 ft | 411 kts | 213° |
| 2026-05-04 01:47 | -38.51978 | -59.96509 | 33890 ft | 411 kts | 213° |
| 2026-05-04 01:48 | -38.57191 | -59.99532 | 33889 ft | 412 kts | 213° |
| 2026-05-04 01:48 | -38.62415 | -60.02566 | 33881 ft | 413 kts | 213° |
| 2026-05-04 01:49 | -38.67646 | -60.05607 | 33878 ft | 413 kts | 213° |
| 2026-05-04 01:49 | -38.72874 | -60.08653 | 33868 ft | 413 kts | 213° |
| 2026-05-04 01:50 | -38.78095 | -60.11699 | 33885 ft | 412 kts | 213° |
| 2026-05-04 01:50 | -38.83316 | -60.14751 | 33862 ft | 412 kts | 213° |
| 2026-05-04 01:51 | -38.88502 | -60.17792 | 33890 ft | 411 kts | 213° |
| 2026-05-04 01:51 | -38.93745 | -60.20812 | 33853 ft | 408 kts | 213° |
| 2026-05-04 01:52 | -38.98883 | -60.23846 | 33847 ft | 405 kts | 213° |
| 2026-05-04 01:52 | -39.03959 | -60.26854 | 33858 ft | 404 kts | 213° |
| 2026-05-04 01:53 | -39.09097 | -60.29891 | 33844 ft | 404 kts | 213° |
| 2026-05-04 01:53 | -39.14177 | -60.32892 | 33841 ft | 405 kts | 213° |
| 2026-05-04 01:54 | -39.19339 | -60.35945 | 33841 ft | 406 kts | 213° |
| 2026-05-04 01:54 | -39.24451 | -60.38972 | 33834 ft | 408 kts | 213° |
| 2026-05-04 01:55 | -39.29620 | -60.42037 | 33833 ft | 410 kts | 213° |
| 2026-05-04 01:55 | -39.34805 | -60.45117 | 33825 ft | 411 kts | 213° |
| 2026-05-04 01:56 | -39.40006 | -60.48211 | 33829 ft | 412 kts | 213° |
| 2026-05-04 01:56 | -39.45242 | -60.51331 | 33821 ft | 412 kts | 213° |
| 2026-05-04 01:57 | -39.50406 | -60.54413 | 33845 ft | 411 kts | 213° |
| 2026-05-04 01:57 | -39.51283 | -60.54937 | 33834 ft | 411 kts | 213° |
| 2026-05-04 01:58 | -39.65295 | -60.63327 | 33810 ft | 409 kts | 213° |
| 2026-05-04 01:59 | -39.70478 | -60.66390 | 33796 ft | 409 kts | 213° |
| 2026-05-04 01:59 | -39.75664 | -60.69445 | 33807 ft | 409 kts | 213° |
| 2026-05-04 02:00 | -39.81725 | -60.73026 | 33795 ft | 409 kts | 213° |
| 2026-05-04 02:00 | -39.86034 | -60.75583 | 33805 ft | 409 kts | 214° |
| 2026-05-04 02:01 | -39.91198 | -60.78664 | 33798 ft | 409 kts | 213° |
| 2026-05-04 02:01 | -39.96349 | -60.81742 | 33786 ft | 407 kts | 213° |
| 2026-05-04 02:02 | -40.01514 | -60.84794 | 33785 ft | 408 kts | 213° |
| 2026-05-04 02:02 | -40.06680 | -60.87869 | 33772 ft | 408 kts | 213° |
| 2026-05-04 02:03 | -40.11838 | -60.90952 | 33774 ft | 408 kts | 213° |
| 2026-05-04 02:03 | -40.16998 | -60.94042 | 33764 ft | 408 kts | 213° |
| 2026-05-04 02:04 | -40.22162 | -60.97140 | 33780 ft | 409 kts | 213° |
| 2026-05-04 02:04 | -40.27336 | -61.00248 | 33769 ft | 409 kts | 213° |
| 2026-05-04 02:05 | -40.32512 | -61.03362 | 33759 ft | 410 kts | 213° |
| 2026-05-04 02:05 | -40.37695 | -61.06486 | 33750 ft | 410 kts | 213° |
| 2026-05-04 02:06 | -40.42872 | -61.09611 | 33752 ft | 409 kts | 213° |
| 2026-05-04 02:06 | -40.48047 | -61.12742 | 33755 ft | 409 kts | 213° |
| 2026-05-04 02:07 | -40.53219 | -61.15876 | 33744 ft | 409 kts | 213° |
| 2026-05-04 02:07 | -40.58384 | -61.19011 | 33741 ft | 408 kts | 213° |
| 2026-05-04 02:08 | -40.63540 | -61.22146 | 33735 ft | 408 kts | 213° |
| 2026-05-04 02:08 | -40.68689 | -61.25283 | 33752 ft | 408 kts | 213° |
| 2026-05-04 02:09 | -40.73838 | -61.28425 | 33735 ft | 408 kts | 213° |
| 2026-05-04 02:09 | -40.78983 | -61.31570 | 33727 ft | 407 kts | 213° |
| 2026-05-04 02:10 | -40.84114 | -61.34711 | 33736 ft | 406 kts | 213° |
| 2026-05-04 02:10 | -40.89199 | -61.37835 | 33722 ft | 402 kts | 213° |
| 2026-05-04 02:11 | -40.94328 | -61.40996 | 33775 ft | 411 kts | 213° |
| 2026-05-04 02:11 | -40.96964 | -61.42617 | 33977 ft | 412 kts | 213° |
| 2026-05-04 02:11 | -40.99558 | -61.44210 | 34229 ft | 411 kts | 213° |
| 2026-05-04 02:12 | -41.02144 | -61.45799 | 34484 ft | 410 kts | 213° |
| 2026-05-04 02:12 | -41.04733 | -61.47392 | 34703 ft | 410 kts | 213° |
| 2026-05-04 02:12 | -41.07312 | -61.48984 | 34875 ft | 410 kts | 213° |
| 2026-05-04 02:12 | -41.09871 | -61.50565 | 35062 ft | 410 kts | 213° |
| 2026-05-04 02:13 | -41.12456 | -61.52163 | 35275 ft | 410 kts | 213° |
| 2026-05-04 02:13 | -41.15043 | -61.53764 | 35485 ft | 411 kts | 213° |
| 2026-05-04 02:13 | -41.17635 | -61.55370 | 35635 ft | 411 kts | 213° |
| 2026-05-04 02:13 | -41.20225 | -61.56976 | 35837 ft | 411 kts | 213° |
| 2026-05-04 02:14 | -41.22818 | -61.58585 | 36042 ft | 411 kts | 213° |
| 2026-05-04 02:14 | -41.25409 | -61.60194 | 36222 ft | 411 kts | 213° |
| 2026-05-04 02:14 | -41.28001 | -61.61805 | 36384 ft | 411 kts | 213° |
| 2026-05-04 02:14 | -41.30589 | -61.63416 | 36567 ft | 411 kts | 213° |
| 2026-05-04 02:15 | -41.33181 | -61.65030 | 36749 ft | 411 kts | 213° |
| 2026-05-04 02:15 | -41.35770 | -61.66643 | 36951 ft | 411 kts | 213° |
| 2026-05-04 02:15 | -41.38354 | -61.68254 | 37186 ft | 409 kts | 213° |
| 2026-05-04 02:15 | -41.40926 | -61.69860 | 37349 ft | 409 kts | 213° |
| 2026-05-04 02:16 | -41.43512 | -61.71476 | 37472 ft | 410 kts | 213° |
| 2026-05-04 02:16 | -41.46092 | -61.73091 | 37603 ft | 410 kts | 213° |
| 2026-05-04 02:16 | -41.51270 | -61.76336 | 37681 ft | 413 kts | 213° |
| 2026-05-04 02:17 | -41.56456 | -61.79589 | 37698 ft | 411 kts | 213° |
| 2026-05-04 02:17 | -41.61630 | -61.82840 | 37672 ft | 410 kts | 213° |
| 2026-05-04 02:18 | -41.66790 | -61.86088 | 37678 ft | 409 kts | 213° |
| 2026-05-04 02:18 | -41.71932 | -61.89332 | 37669 ft | 408 kts | 213° |
| 2026-05-04 02:19 | -41.77066 | -61.92577 | 37673 ft | 408 kts | 213° |
| 2026-05-04 02:19 | -41.82194 | -61.95823 | 37683 ft | 408 kts | 213° |
| 2026-05-04 02:20 | -41.87332 | -61.99082 | 37673 ft | 409 kts | 213° |
| 2026-05-04 02:20 | -41.92481 | -62.02355 | 37654 ft | 410 kts | 213° |
| 2026-05-04 02:21 | -41.97642 | -62.05640 | 37661 ft | 411 kts | 213° |
| 2026-05-04 02:21 | -42.02819 | -62.08939 | 37669 ft | 412 kts | 213° |
| 2026-05-04 02:22 | -42.07978 | -62.12226 | 37653 ft | 409 kts | 213° |
| 2026-05-04 02:22 | -42.13093 | -62.15502 | 37647 ft | 406 kts | 213° |
| 2026-05-04 02:23 | -42.18185 | -62.18768 | 37638 ft | 404 kts | 213° |
| 2026-05-04 02:23 | -42.23258 | -62.22028 | 37630 ft | 404 kts | 213° |
| 2026-05-04 02:24 | -42.28323 | -62.25308 | 37639 ft | 404 kts | 213° |
| 2026-05-04 02:24 | -42.33400 | -62.28572 | 37633 ft | 405 kts | 213° |
| 2026-05-04 02:25 | -42.38488 | -62.31850 | 37627 ft | 406 kts | 213° |
| 2026-05-04 02:25 | -42.43597 | -62.35153 | 37625 ft | 407 kts | 213° |
| 2026-05-04 02:26 | -42.48706 | -62.38473 | 37645 ft | 408 kts | 213° |
| 2026-05-04 02:26 | -42.53851 | -62.41777 | 37620 ft | 410 kts | 213° |
| 2026-05-04 02:27 | -42.58979 | -62.45152 | 37608 ft | 410 kts | 213° |
| 2026-05-04 02:27 | -42.64127 | -62.48501 | 37617 ft | 411 kts | 213° |
| 2026-05-04 02:28 | -42.69280 | -62.51859 | 37608 ft | 411 kts | 213° |
| 2026-05-04 02:28 | -42.74433 | -62.55232 | 37598 ft | 409 kts | 215° |
| 2026-05-04 02:29 | -42.79558 | -62.58648 | 37607 ft | 410 kts | 213° |
| 2026-05-04 02:29 | -42.84713 | -62.61987 | 37601 ft | 410 kts | 213° |
| 2026-05-04 02:30 | -42.89848 | -62.65346 | 37597 ft | 409 kts | 213° |
| 2026-05-04 02:30 | -42.94969 | -62.68721 | 37590 ft | 409 kts | 214° |
| 2026-05-04 02:31 | -43.00086 | -62.72099 | 37607 ft | 408 kts | 213° |
| 2026-05-04 02:31 | -43.05134 | -62.75619 | 37587 ft | 406 kts | 216° |
| 2026-05-04 02:32 | -43.10062 | -62.79380 | 37584 ft | 405 kts | 217° |
| 2026-05-04 02:32 | -43.14985 | -62.83158 | 37581 ft | 406 kts | 217° |
| 2026-05-04 02:33 | -43.19928 | -62.86922 | 37572 ft | 407 kts | 217° |
| 2026-05-04 02:33 | -43.24893 | -62.90688 | 37595 ft | 408 kts | 216° |
| 2026-05-04 02:34 | -43.29877 | -62.94469 | 37583 ft | 410 kts | 216° |
| 2026-05-04 02:34 | -43.34883 | -62.98274 | 37570 ft | 412 kts | 216° |
| 2026-05-04 02:35 | -43.39900 | -63.02094 | 37575 ft | 413 kts | 216° |
| 2026-05-04 02:35 | -43.44932 | -63.05933 | 37565 ft | 414 kts | 216° |
| 2026-05-04 02:36 | -43.49978 | -63.09790 | 37561 ft | 415 kts | 216° |
| 2026-05-04 02:36 | -43.55035 | -63.13663 | 37555 ft | 416 kts | 216° |
| 2026-05-04 02:37 | -43.60089 | -63.17540 | 37552 ft | 416 kts | 216° |
| 2026-05-04 02:37 | -43.64295 | -63.20772 | 37541 ft | 416 kts | 216° |
| 2026-05-04 02:38 | -43.69348 | -63.24664 | 37551 ft | 416 kts | 216° |
| 2026-05-04 02:38 | -43.74396 | -63.28559 | 37550 ft | 415 kts | 216° |
| 2026-05-04 02:39 | -43.79440 | -63.32458 | 37547 ft | 415 kts | 216° |
| 2026-05-04 02:39 | -43.84473 | -63.36356 | 37546 ft | 414 kts | 216° |
| 2026-05-04 02:40 | -43.89495 | -63.40254 | 37543 ft | 414 kts | 216° |
| 2026-05-04 02:40 | -43.94519 | -63.44161 | 37543 ft | 413 kts | 216° |
| 2026-05-04 02:41 | -43.99528 | -63.48064 | 37537 ft | 413 kts | 216° |
| 2026-05-04 02:41 | -44.04542 | -63.51978 | 37546 ft | 413 kts | 216° |
| 2026-05-04 02:42 | -44.09553 | -63.55899 | 37531 ft | 413 kts | 216° |
| 2026-05-04 02:42 | -44.14566 | -63.59827 | 37534 ft | 414 kts | 216° |
| 2026-05-04 02:43 | -44.19578 | -63.63764 | 37525 ft | 414 kts | 216° |
| 2026-05-04 02:43 | -44.24596 | -63.67712 | 37524 ft | 414 kts | 216° |
| 2026-05-04 02:44 | -44.29615 | -63.71669 | 37527 ft | 415 kts | 216° |
| 2026-05-04 02:44 | -44.34643 | -63.75641 | 37522 ft | 416 kts | 216° |
| 2026-05-04 02:45 | -44.39679 | -63.79628 | 37515 ft | 416 kts | 216° |
| 2026-05-04 02:45 | -44.44719 | -63.83625 | 37513 ft | 416 kts | 216° |
| 2026-05-04 02:46 | -44.49760 | -63.87632 | 37510 ft | 417 kts | 216° |
| 2026-05-04 02:46 | -44.54802 | -63.91646 | 37521 ft | 417 kts | 216° |
| 2026-05-04 02:47 | -44.59854 | -63.95678 | 37507 ft | 418 kts | 216° |
| 2026-05-04 02:47 | -44.64908 | -63.99718 | 37506 ft | 418 kts | 216° |
| 2026-05-04 02:48 | -44.69958 | -64.03764 | 37494 ft | 418 kts | 216° |
| 2026-05-04 02:48 | -44.75009 | -64.07820 | 37499 ft | 418 kts | 216° |
| 2026-05-04 02:49 | -44.80054 | -64.11878 | 37505 ft | 418 kts | 216° |
| 2026-05-04 02:49 | -44.85101 | -64.15947 | 37501 ft | 418 kts | 216° |
| 2026-05-04 02:50 | -44.90150 | -64.20026 | 37484 ft | 418 kts | 216° |
| 2026-05-04 02:50 | -44.95193 | -64.24108 | 37485 ft | 418 kts | 216° |
| 2026-05-04 02:51 | -45.00236 | -64.28185 | 37476 ft | 418 kts | 214° |
| 2026-05-04 02:51 | -45.05463 | -64.31893 | 37498 ft | 421 kts | 212° |
| 2026-05-04 02:52 | -45.10775 | -64.35430 | 37473 ft | 422 kts | 211° |
| 2026-05-04 02:52 | -45.16088 | -64.38989 | 37471 ft | 422 kts | 212° |
| 2026-05-04 02:53 | -45.21393 | -64.42589 | 37466 ft | 423 kts | 212° |
| 2026-05-04 02:53 | -45.26695 | -64.46211 | 37466 ft | 423 kts | 212° |
| 2026-05-04 02:54 | -45.31994 | -64.49846 | 37454 ft | 424 kts | 212° |
| 2026-05-04 02:54 | -45.37309 | -64.53498 | 37454 ft | 425 kts | 212° |
| 2026-05-04 02:55 | -45.45292 | -64.58996 | 37446 ft | 425 kts | 212° |
| 2026-05-04 02:56 | -45.50619 | -64.62674 | 37440 ft | 426 kts | 212° |
| 2026-05-04 02:56 | -45.55951 | -64.66364 | 37479 ft | 426 kts | 212° |
| 2026-05-04 02:57 | -45.61296 | -64.70072 | 37437 ft | 428 kts | 212° |
| 2026-05-04 02:57 | -45.66657 | -64.73797 | 37431 ft | 428 kts | 212° |
| 2026-05-04 02:58 | -45.72020 | -64.77531 | 37425 ft | 429 kts | 212° |
| 2026-05-04 02:58 | -45.77386 | -64.81277 | 37422 ft | 429 kts | 212° |
| 2026-05-04 02:59 | -45.82755 | -64.85033 | 37425 ft | 430 kts | 212° |
| 2026-05-04 02:59 | -45.88133 | -64.88803 | 37419 ft | 431 kts | 212° |
| 2026-05-04 03:00 | -45.93516 | -64.92584 | 37406 ft | 431 kts | 212° |
| 2026-05-04 03:00 | -45.98901 | -64.96374 | 37412 ft | 431 kts | 212° |
| 2026-05-04 03:01 | -46.04289 | -65.00175 | 37402 ft | 431 kts | 212° |
| 2026-05-04 03:01 | -46.09677 | -65.03986 | 37400 ft | 431 kts | 212° |
| 2026-05-04 03:02 | -46.15063 | -65.07803 | 37393 ft | 431 kts | 212° |
| 2026-05-04 03:02 | -46.20448 | -65.11626 | 37390 ft | 431 kts | 212° |
| 2026-05-04 03:03 | -46.25828 | -65.15455 | 37394 ft | 431 kts | 212° |
| 2026-05-04 03:03 | -46.31200 | -65.19287 | 37396 ft | 431 kts | 212° |
| 2026-05-04 03:04 | -46.36575 | -65.23131 | 37394 ft | 431 kts | 212° |
| 2026-05-04 03:04 | -46.41952 | -65.26983 | 37384 ft | 431 kts | 212° |
| 2026-05-04 03:05 | -46.47331 | -65.30846 | 37378 ft | 431 kts | 212° |
| 2026-05-04 03:05 | -46.52701 | -65.34710 | 37376 ft | 431 kts | 212° |
| 2026-05-04 03:06 | -46.58071 | -65.38583 | 37369 ft | 431 kts | 212° |
| 2026-05-04 03:06 | -46.63441 | -65.42466 | 37373 ft | 432 kts | 212° |
| 2026-05-04 03:07 | -46.68820 | -65.46363 | 37361 ft | 432 kts | 212° |
| 2026-05-04 03:07 | -46.74196 | -65.50266 | 37370 ft | 432 kts | 212° |
| 2026-05-04 03:08 | -46.79576 | -65.54182 | 37349 ft | 432 kts | 212° |
| 2026-05-04 03:08 | -46.84954 | -65.58104 | 37354 ft | 432 kts | 212° |
| 2026-05-04 03:09 | -46.90341 | -65.62043 | 37363 ft | 433 kts | 212° |
| 2026-05-04 03:09 | -46.95738 | -65.65997 | 37350 ft | 434 kts | 212° |
| 2026-05-04 03:10 | -47.01135 | -65.69961 | 37338 ft | 434 kts | 212° |
| 2026-05-04 03:10 | -47.06534 | -65.73934 | 37345 ft | 434 kts | 212° |
| 2026-05-04 03:11 | -47.11937 | -65.77920 | 37339 ft | 435 kts | 212° |
| 2026-05-04 03:11 | -47.17348 | -65.81921 | 37349 ft | 436 kts | 212° |